Time;durP1;ratioP1;P1;durP2;ratioP2;P2;SDS_P1;SDS_P2;PMS_P1;PMS_P2;Temp;Humidity;BMP_temperature;BMP_pressure;BME280_temperature;BME280_humidity;BME280_pressure;Samples;Min_cycle;Max_cycle;Signal;HPM_P1;HPM_P2
2023/03/17 00:00:04;;;;;;;3.38;1.83;;;9.30;99.90;;;;;;5104745;28;20392;-39
2023/03/17 00:02:29;;;;;;;3.88;1.83;;;9.30;99.90;;;;;;5104126;28;20024;-39
2023/03/17 00:04:55;;;;;;;4.03;2.00;;;9.20;99.90;;;;;;5103793;28;20476;-39
2023/03/17 00:07:21;;;;;;;3.97;1.70;;;9.20;99.90;;;;;;5095493;28;20503;-41
2023/03/17 00:09:47;;;;;;;2.28;1.50;;;9.10;99.90;;;;;;5096587;28;20480;-43
2023/03/17 00:12:14;;;;;;;4.60;1.73;;;9.10;99.90;;;;;;5095648;28;20525;-40
2023/03/17 00:14:40;;;;;;;1.95;1.40;;;9.00;99.90;;;;;;5100447;28;20139;-38
2023/03/17 00:17:08;;;;;;;4.15;1.60;;;9.00;99.90;;;;;;5104046;28;20024;-38
2023/03/17 00:19:35;;;;;;;2.00;1.38;;;9.00;99.90;;;;;;5100505;27;20451;-41
2023/03/17 00:22:04;;;;;;;8.18;1.80;;;8.90;99.90;;;;;;5105078;28;20057;-41
2023/03/17 00:24:30;;;;;;;1.67;1.50;;;9.10;99.90;;;;;;5110727;28;20073;-40
2023/03/17 00:26:56;;;;;;;3.28;1.65;;;9.10;99.90;;;;;;5117215;28;20475;-41
2023/03/17 00:29:22;;;;;;;6.15;1.42;;;9.10;99.90;;;;;;5116061;28;20020;-41
2023/03/17 00:31:49;;;;;;;4.82;1.80;;;9.00;99.90;;;;;;5101358;28;20120;-40
2023/03/17 00:34:17;;;;;;;1.48;1.15;;;8.90;99.90;;;;;;5098499;28;20032;-41
2023/03/17 00:36:47;;;;;;;8.43;1.95;;;8.90;99.90;;;;;;5110635;28;20479;-41
2023/03/17 00:39:15;;;;;;;3.00;1.70;;;8.80;99.90;;;;;;5107676;28;20044;-43
2023/03/17 00:41:41;;;;;;;6.53;2.13;;;8.80;99.90;;;;;;5104758;28;20071;-40
2023/03/17 00:44:06;;;;;;;5.18;1.88;;;8.80;99.90;;;;;;5103075;28;20020;-40
2023/03/17 00:46:36;;;;;;;3.45;1.92;;;8.80;99.90;;;;;;5100051;28;20055;-41
2023/03/17 00:49:20;;;;;;;1.80;1.55;;;8.80;99.90;;;;;;5109007;28;20020;-41
2023/03/17 00:51:47;;;;;;;3.53;1.77;;;8.80;99.90;;;;;;5115794;28;20532;-41
2023/03/17 00:54:14;;;;;;;3.05;1.98;;;8.70;99.90;;;;;;5102551;28;20031;-41
2023/03/17 00:56:41;;;;;;;2.00;1.50;;;8.70;99.90;;;;;;5100337;28;20032;-42
2023/03/17 00:59:32;;;;;;;1.92;1.45;;;8.70;99.90;;;;;;5106270;28;20058;-41
2023/03/17 01:01:58;;;;;;;5.10;1.75;;;8.70;99.90;;;;;;5096042;28;20020;-42
2023/03/17 01:04:24;;;;;;;2.25;1.83;;;8.70;99.90;;;;;;5097473;28;20020;-42
2023/03/17 01:06:51;;;;;;;4.47;1.77;;;8.70;99.90;;;;;;5096794;28;20027;-41
2023/03/17 01:09:22;;;;;;;1.55;1.45;;;8.60;99.90;;;;;;5098296;28;20115;-41
2023/03/17 01:11:48;;;;;;;2.50;1.77;;;8.60;99.90;;;;;;5111772;28;20466;-40
2023/03/17 01:14:14;;;;;;;3.30;2.15;;;8.60;99.90;;;;;;5114337;28;20098;-40
2023/03/17 01:16:40;;;;;;;3.55;1.88;;;8.60;99.90;;;;;;5094658;28;20511;-41
2023/03/17 01:19:08;;;;;;;2.40;1.88;;;8.60;99.90;;;;;;5101459;28;20020;-40
2023/03/17 01:21:33;;;;;;;5.57;1.73;;;8.60;99.90;;;;;;5116309;28;20034;-40
2023/03/17 01:23:59;;;;;;;2.53;1.85;;;8.60;99.90;;;;;;5116270;28;20016;-41
2023/03/17 01:26:25;;;;;;;2.33;1.70;;;8.60;99.90;;;;;;5114832;28;20136;-41
2023/03/17 01:28:50;;;;;;;2.90;1.80;;;8.60;99.90;;;;;;5115448;27;20425;-39
2023/03/17 01:31:16;;;;;;;2.28;1.77;;;8.60;99.90;;;;;;5116104;28;20569;-38
2023/03/17 01:33:42;;;;;;;4.57;2.10;;;8.50;99.90;;;;;;5116242;28;20027;-42
2023/03/17 01:36:09;;;;;;;4.43;2.03;;;8.60;99.90;;;;;;5113810;28;20031;-40
2023/03/17 01:38:36;;;;;;;3.85;2.25;;;8.50;99.90;;;;;;5115849;28;20120;-41
2023/03/17 01:41:02;;;;;;;4.32;1.60;;;8.50;99.90;;;;;;5116243;28;20023;-40
2023/03/17 01:43:29;;;;;;;2.20;1.65;;;8.50;99.90;;;;;;5115915;28;20472;-40
2023/03/17 01:46:26;;;;;;;3.27;1.80;;;8.40;99.90;;;;;;5113936;28;20027;-42
2023/03/17 01:49:04;;;;;;;11.30;2.45;;;8.40;99.90;;;;;;5095416;28;20019;-42
2023/03/17 01:51:51;;;;;;;4.28;2.08;;;8.30;99.90;;;;;;5107581;27;20036;-41
2023/03/17 01:54:25;;;;;;;5.45;2.42;;;8.40;99.90;;;;;;5095966;28;20020;-42
2023/03/17 01:56:52;;;;;;;3.83;1.88;;;8.40;99.90;;;;;;5095010;28;20071;-41
2023/03/17 01:59:24;;;;;;;3.08;1.98;;;8.40;99.90;;;;;;5104710;28;20020;-40
2023/03/17 02:01:55;;;;;;;3.28;1.52;;;8.40;99.90;;;;;;5114040;28;20537;-40
2023/03/17 02:04:22;;;;;;;4.03;2.30;;;8.40;99.90;;;;;;5110628;28;20050;-42
2023/03/17 02:06:50;;;;;;;3.20;1.90;;;8.30;99.90;;;;;;5094272;28;20024;-42
2023/03/17 02:09:16;;;;;;;3.63;1.58;;;8.30;99.90;;;;;;5115252;28;20080;-41
2023/03/17 02:11:42;;;;;;;1.67;1.58;;;8.40;99.90;;;;;;5114440;28;20491;-40
2023/03/17 02:14:08;;;;;;;4.65;2.05;;;8.40;99.90;;;;;;5108358;28;20035;-34
2023/03/17 02:16:34;;;;;;;2.70;1.92;;;8.30;99.90;;;;;;5094776;28;20472;-36
2023/03/17 02:19:00;;;;;;;2.00;1.83;;;8.30;99.90;;;;;;5097144;28;20028;-38
2023/03/17 02:21:38;;;;;;;2.72;1.73;;;8.30;99.90;;;;;;5101417;28;20472;-36
2023/03/17 02:24:25;;;;;;;2.90;1.80;;;8.30;99.90;;;;;;5098346;28;20503;-35
2023/03/17 02:26:53;;;;;;;1.67;1.58;;;8.30;99.90;;;;;;5105275;28;20039;-37
2023/03/17 02:29:22;;;;;;;;;;;8.30;99.90;;;;;;5108100;28;20082;-36
2023/03/17 02:31:47;;;;;;;1.88;1.65;;;8.30;99.90;;;;;;5106719;28;19912;-37
2023/03/17 02:34:14;;;;;;;3.60;2.05;;;8.20;99.90;;;;;;5114902;28;20031;-36
2023/03/17 02:36:40;;;;;;;5.38;1.83;;;8.30;99.90;;;;;;5094621;28;20060;-36
2023/03/17 02:39:07;;;;;;;2.42;1.92;;;8.30;99.90;;;;;;5093264;28;20079;-36
2023/03/17 02:41:33;;;;;;;3.10;2.10;;;8.20;99.90;;;;;;5094411;28;20024;-35
2023/03/17 02:43:59;;;;;;;3.13;1.85;;;8.30;99.90;;;;;;5098155;28;20031;-35
2023/03/17 02:46:25;;;;;;;3.80;2.08;;;8.30;99.90;;;;;;5095292;28;20073;-38
2023/03/17 02:48:52;;;;;;;3.40;1.88;;;8.30;99.90;;;;;;5114242;28;20088;-35
2023/03/17 02:51:18;;;;;;;2.05;1.85;;;8.30;99.90;;;;;;5114588;28;20025;-36
2023/03/17 02:53:43;;;;;;;7.47;1.85;;;8.20;99.90;;;;;;5102118;28;20107;-41
2023/03/17 02:56:09;;;;;;;4.38;1.80;;;8.20;99.90;;;;;;5105562;28;20016;-35
2023/03/17 02:58:35;;;;;;;4.28;1.88;;;8.30;99.90;;;;;;5113009;28;20498;-32
2023/03/17 03:01:01;;;;;;;1.67;1.40;;;8.40;99.90;;;;;;5113478;28;20077;-31
2023/03/17 03:03:27;;;;;;;3.83;2.22;;;8.30;99.90;;;;;;5104709;28;20031;-36
2023/03/17 03:05:52;;;;;;;7.70;2.15;;;8.30;99.90;;;;;;5093892;28;20354;-37
2023/03/17 03:08:19;;;;;;;2.40;1.73;;;8.30;99.90;;;;;;5093514;28;20123;-34
2023/03/17 03:10:45;;;;;;;3.80;1.65;;;8.30;99.90;;;;;;5098268;28;20085;-36
2023/03/17 03:13:11;;;;;;;1.88;1.60;;;8.40;99.90;;;;;;5114117;28;20024;-33
2023/03/17 03:15:40;;;;;;;1.67;1.55;;;8.50;99.90;;;;;;5112938;28;20034;-35
2023/03/17 03:18:06;;;;;;;2.88;1.50;;;8.50;99.90;;;;;;5113407;28;20106;-33
2023/03/17 03:20:31;;;;;;;1.77;1.63;;;8.50;99.90;;;;;;5112143;28;20048;-33
2023/03/17 03:22:57;;;;;;;1.92;1.38;;;8.50;99.90;;;;;;5112387;28;20055;-35
2023/03/17 03:25:23;;;;;;;11.40;2.05;;;8.50;99.90;;;;;;5113717;28;20519;-40
2023/03/17 03:27:49;;;;;;;2.20;1.50;;;8.40;99.90;;;;;;5113786;28;20498;-37
2023/03/17 03:30:15;;;;;;;3.13;1.98;;;8.40;99.90;;;;;;5111811;28;20023;-39
2023/03/17 03:32:40;;;;;;;8.73;2.00;;;8.40;99.90;;;;;;5112564;28;20098;-39
2023/03/17 03:35:07;;;;;;;4.85;1.83;;;8.40;99.90;;;;;;5112874;28;20055;-33
2023/03/17 03:37:33;;;;;;;2.50;1.92;;;8.40;99.90;;;;;;5113338;28;20058;-33
2023/03/17 03:39:59;;;;;;;5.22;1.92;;;8.40;99.90;;;;;;5095544;28;20571;-39
2023/03/17 03:42:24;;;;;;;3.80;1.80;;;8.40;99.90;;;;;;5104715;28;20098;-33
2023/03/17 03:44:50;;;;;;;4.53;2.03;;;8.50;99.90;;;;;;5104126;28;20023;-35
2023/03/17 03:47:16;;;;;;;4.45;1.80;;;8.50;99.90;;;;;;5113827;28;20115;-39
2023/03/17 03:49:41;;;;;;;3.75;1.95;;;8.60;99.90;;;;;;5108101;28;20365;-36
2023/03/17 03:52:07;;;;;;;3.70;1.90;;;8.50;99.90;;;;;;5110497;28;20027;-33
2023/03/17 03:54:33;;;;;;;2.55;1.80;;;8.60;99.90;;;;;;5102765;28;20039;-39
2023/03/17 03:56:59;;;;;;;4.47;2.05;;;8.70;99.90;;;;;;5111858;28;20028;-36
2023/03/17 03:59:24;;;;;;;2.45;1.83;;;8.70;99.90;;;;;;5111881;28;20024;-37
2023/03/17 04:01:50;;;;;;;2.92;1.98;;;8.60;99.90;;;;;;5096168;28;20024;-38
2023/03/17 04:04:16;;;;;;;2.15;1.50;;;8.60;99.90;;;;;;5091865;28;20031;-34
2023/03/17 04:06:41;;;;;;;8.27;2.13;;;8.60;99.90;;;;;;5093297;28;20099;-39
2023/03/17 04:09:08;;;;;;;1.73;1.33;;;8.60;99.90;;;;;;5094141;28;20060;-38
2023/03/17 04:11:34;;;;;;;2.67;1.58;;;8.60;99.90;;;;;;5093141;28;20048;-38
2023/03/17 04:13:59;;;;;;;3.42;1.75;;;8.60;99.90;;;;;;5092901;28;20054;-38
2023/03/17 04:16:25;;;;;;;3.60;1.70;;;8.60;99.90;;;;;;5093838;28;20472;-40
2023/03/17 04:18:51;;;;;;;2.95;1.63;;;8.60;99.90;;;;;;5097309;28;20016;-38
2023/03/17 04:21:17;;;;;;;2.22;1.42;;;8.60;99.90;;;;;;5092614;28;20107;-38
2023/03/17 04:23:44;;;;;;;1.73;1.40;;;8.70;99.90;;;;;;5107270;28;20095;-37
2023/03/17 04:26:10;;;;;;;3.90;1.40;;;8.70;99.90;;;;;;5093248;28;20027;-36
2023/03/17 04:28:36;;;;;;;3.63;1.65;;;8.70;99.90;;;;;;5092519;28;20054;-42
2023/03/17 04:31:02;;;;;;;2.90;1.70;;;8.70;99.90;;;;;;5092612;28;20032;-41
2023/03/17 04:33:27;;;;;;;5.75;1.90;;;8.80;99.90;;;;;;5092294;28;20032;-40
2023/03/17 04:35:53;;;;;;;2.47;1.40;;;8.90;99.90;;;;;;5094179;28;20024;-42
2023/03/17 04:38:19;;;;;;;3.78;2.33;;;8.80;99.90;;;;;;5095817;28;20097;-42
2023/03/17 04:40:45;;;;;;;4.72;1.80;;;8.80;99.90;;;;;;5092412;28;20062;-41
2023/03/17 04:43:11;;;;;;;1.95;1.45;;;9.00;99.90;;;;;;5095552;28;20364;-39
2023/03/17 04:45:37;;;;;;;2.88;1.70;;;8.90;99.90;;;;;;5091906;28;20068;-40
2023/03/17 04:48:03;;;;;;;1.58;1.25;;;8.90;99.90;;;;;;5110802;28;20036;-41
2023/03/17 04:50:28;;;;;;;3.22;2.00;;;8.80;99.90;;;;;;5094460;28;20024;-41
2023/03/17 04:52:54;;;;;;;4.22;1.80;;;8.80;99.90;;;;;;5110095;28;20028;-39
2023/03/17 04:55:20;;;;;;;2.67;1.88;;;8.80;99.90;;;;;;5101248;28;20028;-41
2023/03/17 04:57:46;;;;;;;1.98;1.55;;;8.90;99.90;;;;;;5111641;28;20024;-40
2023/03/17 05:00:14;;;;;;;5.20;1.70;;;8.90;99.90;;;;;;5111360;28;20024;-40
2023/03/17 05:02:40;;;;;;;3.72;1.90;;;8.80;99.90;;;;;;5102358;28;20107;-40
2023/03/17 05:05:05;;;;;;;1.60;1.50;;;8.80;99.90;;;;;;5095146;28;20153;-42
2023/03/17 05:07:31;;;;;;;4.80;1.48;;;8.80;99.90;;;;;;5096116;28;20032;-40
2023/03/17 05:09:57;;;;;;;7.25;1.92;;;8.80;99.90;;;;;;5104517;28;20488;-41
2023/03/17 05:12:22;;;;;;;2.97;1.50;;;8.90;99.90;;;;;;5102656;28;20467;-40
2023/03/17 05:14:48;;;;;;;10.63;1.75;;;8.90;99.90;;;;;;5111861;28;20020;-41
2023/03/17 05:17:14;;;;;;;6.20;1.73;;;8.90;99.90;;;;;;5111408;28;20027;-39
2023/03/17 05:19:39;;;;;;;2.08;1.60;;;8.90;99.90;;;;;;5103987;28;20073;-41
2023/03/17 05:22:05;;;;;;;5.03;2.03;;;9.00;99.90;;;;;;5112138;28;20024;-40
2023/03/17 05:24:31;;;;;;;6.75;1.80;;;9.10;99.90;;;;;;5102194;27;20030;-41
2023/03/17 05:26:57;;;;;;;2.58;1.40;;;9.10;99.90;;;;;;5107895;28;20480;-40
2023/03/17 05:29:22;;;;;;;2.08;1.20;;;9.00;99.90;;;;;;5110460;28;20433;-42
2023/03/17 05:31:48;;;;;;;3.75;2.13;;;9.00;99.90;;;;;;5115044;28;20028;-41
2023/03/17 05:34:14;;;;;;;2.60;1.50;;;9.10;99.90;;;;;;5112307;28;20076;-41
2023/03/17 05:36:40;;;;;;;3.53;1.63;;;9.10;99.90;;;;;;5103541;28;20035;-38
2023/03/17 05:39:06;;;;;;;4.10;1.67;;;9.00;99.90;;;;;;5106022;28;20044;-40
2023/03/17 05:41:32;;;;;;;2.75;1.80;;;9.00;99.90;;;;;;5099270;28;20043;-40
2023/03/17 05:43:58;;;;;;;2.75;1.80;;;8.90;99.90;;;;;;5104959;28;20012;-40
2023/03/17 05:46:24;;;;;;;8.02;2.13;;;8.80;99.90;;;;;;5095320;28;20036;-40
2023/03/17 05:48:49;;;;;;;3.92;2.20;;;8.70;99.90;;;;;;5095309;28;20031;-40
2023/03/17 05:51:15;;;;;;;2.53;1.92;;;8.70;99.90;;;;;;5099176;28;20475;-40
2023/03/17 05:53:42;;;;;;;3.22;1.73;;;8.60;99.90;;;;;;5103817;28;20019;-41
2023/03/17 05:56:08;;;;;;;3.80;2.00;;;8.60;99.90;;;;;;5106730;28;20019;-40
2023/03/17 05:58:34;;;;;;;3.72;1.90;;;8.60;99.90;;;;;;5101690;28;20030;-38
2023/03/17 06:00:59;;;;;;;3.47;1.60;;;8.70;99.90;;;;;;5095214;28;20028;-41
2023/03/17 06:03:28;;;;;;;5.85;2.05;;;8.70;99.90;;;;;;5095215;28;20024;-40
2023/03/17 06:05:53;;;;;;;3.38;2.13;;;8.70;99.90;;;;;;5102585;28;20476;-40
2023/03/17 06:08:20;;;;;;;2.78;1.70;;;8.70;99.90;;;;;;5101498;28;20035;-41
2023/03/17 06:10:46;;;;;;;7.85;2.40;;;8.60;99.90;;;;;;5097586;28;20472;-40
2023/03/17 06:13:12;;;;;;;1.88;1.55;;;8.70;99.90;;;;;;5114936;28;20015;-42
2023/03/17 06:15:37;;;;;;;2.00;1.83;;;8.60;99.90;;;;;;5115003;28;20023;-40
2023/03/17 06:18:04;;;;;;;9.25;2.45;;;8.60;99.90;;;;;;5107225;28;20066;-42
2023/03/17 06:20:31;;;;;;;4.47;1.95;;;8.70;99.90;;;;;;5094849;28;20043;-40
2023/03/17 06:22:57;;;;;;;4.93;1.90;;;8.80;99.90;;;;;;5097311;28;20023;-39
2023/03/17 06:25:23;;;;;;;4.85;1.85;;;8.70;99.90;;;;;;5110859;28;20031;-40
2023/03/17 06:27:53;;;;;;;1.65;1.55;;;8.80;99.90;;;;;;5098717;28;20015;-41
2023/03/17 06:30:20;;;;;;;5.57;1.67;;;8.80;99.90;;;;;;5115311;28;20031;-42
2023/03/17 06:32:46;;;;;;;4.30;2.20;;;8.80;99.90;;;;;;5115020;28;20024;-41
2023/03/17 06:35:12;;;;;;;4.15;1.83;;;8.80;99.90;;;;;;5115215;28;20027;-40
2023/03/17 06:37:37;;;;;;;2.53;1.75;;;8.90;99.90;;;;;;5102814;28;20020;-43
2023/03/17 06:40:07;;;;;;;7.90;1.73;;;9.00;99.90;;;;;;5103153;28;20106;-42
2023/03/17 06:42:33;;;;;;;2.67;1.65;;;9.00;99.90;;;;;;5111750;28;20078;-40
2023/03/17 06:44:59;;;;;;;4.28;1.95;;;9.00;99.90;;;;;;5114744;28;20023;-40
2023/03/17 06:47:25;;;;;;;6.50;2.17;;;9.10;99.90;;;;;;5113036;28;20439;-40
2023/03/17 06:49:50;;;;;;;2.63;1.50;;;9.30;99.90;;;;;;5114848;28;20102;-41
2023/03/17 06:52:16;;;;;;;5.75;2.55;;;9.30;99.90;;;;;;5111063;28;20026;-33
2023/03/17 06:54:42;;;;;;;13.73;3.47;;;9.30;99.90;;;;;;5114519;28;20059;-34
2023/03/17 06:57:08;;;;;;;3.17;1.83;;;9.40;99.90;;;;;;5100466;28;20028;-38
2023/03/17 06:59:34;;;;;;;10.18;1.80;;;9.40;99.90;;;;;;5098112;28;20019;-37
2023/03/17 07:01:59;;;;;;;4.18;1.63;;;9.40;99.90;;;;;;5107610;28;20089;-38
2023/03/17 07:04:26;;;;;;;3.85;2.25;;;9.50;99.90;;;;;;5094185;28;20024;-36
2023/03/17 07:06:51;;;;;;;11.57;2.45;;;9.50;99.90;;;;;;5106912;28;20062;-38
2023/03/17 07:09:17;;;;;;;10.23;2.78;;;9.70;99.90;;;;;;5111334;28;20055;-39
2023/03/17 07:11:43;;;;;;;5.72;2.30;;;9.80;99.90;;;;;;5103727;28;20077;-34
2023/03/17 07:14:08;;;;;;;2.75;1.95;;;9.80;99.90;;;;;;5099188;28;20480;-35
2023/03/17 07:16:34;;;;;;;5.55;2.20;;;9.90;99.90;;;;;;5106952;28;20044;-34
2023/03/17 07:19:00;;;;;;;4.30;2.17;;;9.90;99.90;;;;;;5113952;28;20035;-33
2023/03/17 07:21:26;;;;;;;3.80;1.98;;;9.90;99.90;;;;;;5093201;28;20094;-37
2023/03/17 07:23:52;;;;;;;5.40;1.73;;;10.00;99.90;;;;;;5096022;28;20462;-38
2023/03/17 07:26:18;;;;;;;6.93;1.95;;;10.00;99.90;;;;;;5101569;28;20020;-39
2023/03/17 07:28:44;;;;;;;6.80;2.30;;;10.00;99.90;;;;;;5109555;28;20426;-33
2023/03/17 07:31:12;;;;;;;2.90;1.75;;;10.10;99.90;;;;;;5098249;28;20085;-31
2023/03/17 07:33:39;;;;;;;6.80;1.58;;;10.10;99.90;;;;;;5107921;28;20400;-35
2023/03/17 07:36:17;;;;;;;2.83;2.08;;;10.10;99.90;;;;;;5093313;28;20030;-37
2023/03/17 07:38:42;;;;;;;9.30;2.03;;;10.20;99.90;;;;;;5088749;28;20067;-37
2023/03/17 07:41:09;;;;;;;3.33;2.42;;;10.30;99.90;;;;;;5093327;28;20480;-38
2023/03/17 07:43:36;;;;;;;3.33;2.05;;;10.30;99.90;;;;;;5103879;28;20044;-36
2023/03/17 07:46:02;;;;;;;6.75;1.95;;;10.40;99.90;;;;;;5100437;27;20024;-40
2023/03/17 07:48:29;;;;;;;4.45;2.13;;;10.50;99.90;;;;;;5093134;28;20077;-37
2023/03/17 07:50:55;;;;;;;4.35;2.28;;;10.60;99.90;;;;;;5104633;28;20388;-37
2023/03/17 07:53:20;;;;;;;2.65;2.10;;;10.70;99.90;;;;;;5113039;28;20387;-34
2023/03/17 07:55:46;;;;;;;3.33;2.03;;;10.80;99.90;;;;;;5113340;28;20031;-35
2023/03/17 07:58:12;;;;;;;2.95;1.77;;;11.00;99.90;;;;;;5113327;28;20019;-36
2023/03/17 08:00:38;;;;;;;5.85;2.15;;;11.00;99.90;;;;;;5108568;28;20019;-36
2023/03/17 08:03:04;;;;;;;4.03;2.00;;;11.00;99.90;;;;;;5113261;28;20030;-36
2023/03/17 08:05:30;;;;;;;3.22;1.98;;;11.10;99.90;;;;;;5113355;28;20023;-33
2023/03/17 08:07:56;;;;;;;2.42;2.22;;;11.20;99.90;;;;;;5111732;28;20066;-37
2023/03/17 08:10:21;;;;;;;6.50;2.40;;;11.30;99.90;;;;;;5104761;28;20020;-40
2023/03/17 08:12:50;;;;;;;4.95;2.20;;;11.30;99.90;;;;;;5104156;28;20024;-38
2023/03/17 08:15:17;;;;;;;5.00;2.90;;;11.30;99.90;;;;;;5102948;28;20127;-37
2023/03/17 08:17:43;;;;;;;5.22;2.20;;;11.30;99.90;;;;;;5105259;28;20417;-34
2023/03/17 08:20:10;;;;;;;2.90;1.92;;;11.40;99.90;;;;;;5105784;28;20024;-35
2023/03/17 08:22:36;;;;;;;4.57;2.88;;;11.40;99.90;;;;;;5104420;28;20049;-36
2023/03/17 08:25:02;;;;;;;4.95;2.20;;;11.50;99.90;;;;;;5112826;28;20031;-36
2023/03/17 08:27:28;;;;;;;3.85;1.67;;;11.50;99.90;;;;;;5113033;28;20024;-36
2023/03/17 08:29:54;;;;;;;5.38;2.10;;;11.60;99.90;;;;;;5113366;28;20100;-35
2023/03/17 08:32:21;;;;;;;5.22;1.77;;;11.60;99.90;;;;;;5113381;28;20031;-39
2023/03/17 08:34:47;;;;;;;7.47;2.10;;;11.60;99.90;;;;;;5104087;28;20492;-37
2023/03/17 08:37:13;;;;;;;3.80;1.63;;;11.70;99.90;;;;;;5093832;28;20418;-35
2023/03/17 08:39:39;;;;;;;5.47;2.03;;;11.80;99.90;;;;;;5100110;28;20096;-38
2023/03/17 08:42:04;;;;;;;6.72;1.75;;;11.90;99.90;;;;;;5117097;28;20088;-34
2023/03/17 08:44:30;;;;;;;4.43;2.13;;;12.00;99.90;;;;;;5117301;27;20047;-38
2023/03/17 08:46:56;;;;;;;7.15;2.60;;;12.10;99.90;;;;;;5108475;28;20539;-37
2023/03/17 08:49:22;;;;;;;3.97;2.22;;;12.10;99.90;;;;;;5096466;28;20028;-34
2023/03/17 08:51:48;;;;;;;8.10;2.45;;;12.20;99.90;;;;;;5104455;27;20503;-38
2023/03/17 08:54:14;;;;;;;3.17;2.20;;;12.30;99.90;;;;;;5103902;28;20109;-41
2023/03/17 08:56:41;;;;;;;3.03;2.00;;;12.40;99.90;;;;;;5104766;28;20046;-43
2023/03/17 08:59:07;;;;;;;5.45;1.92;;;12.50;99.90;;;;;;5098566;28;20050;-41
2023/03/17 09:01:33;;;;;;;6.43;2.30;;;12.60;99.90;;;;;;5113201;28;20019;-42
2023/03/17 09:04:00;;;;;;;10.88;2.00;;;12.70;99.90;;;;;;5112924;28;20493;-41
2023/03/17 09:06:26;;;;;;;5.85;2.63;;;12.90;99.90;;;;;;5105126;28;20101;-41
2023/03/17 09:08:54;;;;;;;5.63;2.20;;;13.00;99.90;;;;;;5106130;28;20047;-41
2023/03/17 09:11:23;;;;;;;2.10;1.90;;;13.10;99.90;;;;;;5107052;28;20034;-40
2023/03/17 09:13:49;;;;;;;2.85;2.05;;;13.20;99.90;;;;;;5116455;28;20103;-41
2023/03/17 09:16:16;;;;;;;4.13;2.25;;;13.30;99.90;;;;;;5105598;28;20093;-42
2023/03/17 09:18:43;;;;;;;7.25;2.15;;;13.30;99.90;;;;;;5103784;27;20503;-38
2023/03/17 09:21:11;;;;;;;10.82;2.75;;;13.40;99.90;;;;;;5100042;28;20472;-42
2023/03/17 09:23:36;;;;;;;2.92;1.83;;;13.40;99.90;;;;;;5095995;28;20024;-41
2023/03/17 09:26:02;;;;;;;11.52;2.08;;;13.50;99.90;;;;;;5096560;28;20361;-41
2023/03/17 09:28:28;;;;;;;8.07;2.95;;;13.60;99.90;;;;;;5095973;28;20023;-42
2023/03/17 09:30:58;;;;;;;4.95;2.30;;;13.70;99.90;;;;;;5099218;28;20543;-44
2023/03/17 09:33:24;;;;;;;2.75;1.67;;;13.80;99.90;;;;;;5097057;28;20480;-41
2023/03/17 09:35:55;;;;;;;5.75;2.30;;;13.90;99.90;;;;;;5097326;28;20047;-41
2023/03/17 09:38:22;;;;;;;8.20;2.03;;;14.00;99.90;;;;;;5104319;28;20024;-40
2023/03/17 09:40:56;;;;;;;2.22;2.03;;;14.00;99.90;;;;;;5110488;28;20046;-39
2023/03/17 09:43:47;;;;;;;5.15;2.20;;;14.00;99.90;;;;;;5098729;28;20063;-41
2023/03/17 09:46:36;;;;;;;2.65;2.05;;;14.00;99.90;;;;;;5096995;28;20046;-41
2023/03/17 09:49:10;;;;;;;2.25;2.03;;;14.00;99.90;;;;;;5089892;28;20051;-41
2023/03/17 09:51:37;;;;;;;3.42;1.92;;;14.10;99.90;;;;;;5105597;28;20577;-39
2023/03/17 09:54:21;;;;;;;3.28;2.17;;;14.10;99.90;;;;;;5107517;28;20506;-41
2023/03/17 09:56:53;;;;;;;3.63;1.98;;;14.20;99.90;;;;;;5095134;28;20105;-41
2023/03/17 09:59:29;;;;;;;3.75;2.00;;;14.30;99.90;;;;;;5095166;28;20145;-39
2023/03/17 10:01:54;;;;;;;4.50;2.10;;;14.30;99.90;;;;;;5099632;28;20043;-39
2023/03/17 10:04:20;;;;;;;6.00;1.83;;;14.50;99.90;;;;;;5112618;28;20019;-39
2023/03/17 10:06:48;;;;;;;6.20;2.05;;;14.40;99.90;;;;;;5113515;28;20035;-39
2023/03/17 10:09:21;;;;;;;10.45;1.85;;;14.50;99.90;;;;;;5113681;28;20102;-40
2023/03/17 10:11:53;;;;;;;5.80;2.33;;;14.80;99.90;;;;;;5103602;28;20486;-40
2023/03/17 10:14:28;;;;;;;4.93;3.00;;;15.00;99.90;;;;;;5115325;28;20032;-40
2023/03/17 10:17:19;;;;;;;3.67;2.20;;;15.20;99.90;;;;;;5099246;28;20395;-42
2023/03/17 10:20:03;;;;;;;5.50;2.17;;;15.30;99.90;;;;;;5096964;28;20055;-40
2023/03/17 10:22:31;;;;;;;3.70;2.25;;;15.30;99.90;;;;;;5098451;28;20035;-40
2023/03/17 10:25:02;;;;;;;5.30;2.35;;;15.40;99.90;;;;;;5111825;28;20015;-41
2023/03/17 10:27:33;;;;;;;2.80;2.25;;;15.30;99.90;;;;;;5098068;28;20024;-40
2023/03/17 10:29:58;;;;;;;3.10;2.33;;;15.30;99.90;;;;;;5108393;28;20503;-41
2023/03/17 10:32:26;;;;;;;6.25;2.25;;;15.50;99.90;;;;;;5115030;28;20020;-42
2023/03/17 10:34:53;;;;;;;4.82;2.40;;;15.60;99.90;;;;;;5113802;28;20051;-40
2023/03/17 10:37:22;;;;;;;3.85;2.20;;;15.60;99.90;;;;;;5112126;28;20026;-40
2023/03/17 10:39:50;;;;;;;3.30;2.25;;;15.60;99.90;;;;;;5114542;28;20054;-40
2023/03/17 10:42:28;;;;;;;3.05;2.42;;;15.50;99.90;;;;;;5114788;28;20024;-40
2023/03/17 10:44:57;;;;;;;7.13;2.47;;;15.40;99.90;;;;;;5113697;28;20031;-39
2023/03/17 10:47:29;;;;;;;6.75;2.28;;;15.40;99.90;;;;;;5114872;28;20035;-39
2023/03/17 10:49:57;;;;;;;9.27;2.55;;;15.60;99.90;;;;;;5104143;28;20050;-39
2023/03/17 10:52:29;;;;;;;7.93;2.83;;;15.70;99.90;;;;;;5100517;28;20028;-42
2023/03/17 10:54:59;;;;;;;4.63;2.72;;;15.80;99.90;;;;;;5108678;28;20028;-43
2023/03/17 10:57:25;;;;;;;5.22;2.35;;;15.80;99.90;;;;;;5114375;28;20079;-41
2023/03/17 10:59:54;;;;;;;5.80;2.83;;;15.70;99.90;;;;;;5103288;28;20684;-40
2023/03/17 11:02:23;;;;;;;13.05;2.65;;;15.70;99.90;;;;;;5098583;28;20533;-40
2023/03/17 11:04:48;;;;;;;5.32;2.53;;;15.80;99.90;;;;;;5095049;28;20063;-41
2023/03/17 11:07:28;;;;;;;5.50;2.88;;;15.90;99.90;;;;;;5094001;28;20415;-41
2023/03/17 11:09:59;;;;;;;6.57;2.63;;;15.90;99.90;;;;;;5103401;28;20080;-41
2023/03/17 11:12:26;;;;;;;5.63;2.90;;;15.90;99.90;;;;;;5103195;27;20049;-42
2023/03/17 11:15:00;;;;;;;7.50;2.30;;;15.90;99.90;;;;;;5106076;28;20020;-40
2023/03/17 11:17:37;;;;;;;5.32;3.10;;;15.90;99.90;;;;;;5103072;28;20150;-41
2023/03/17 11:20:38;;;;;;;6.40;3.05;;;15.80;99.90;;;;;;5101033;28;20028;-41
2023/03/17 11:23:29;;;;;;;5.65;2.00;;;15.70;99.90;;;;;;5088880;28;20068;-39
2023/03/17 11:26:27;;;;;;;7.47;3.33;;;15.50;99.90;;;;;;5093590;28;20028;-41
2023/03/17 11:29:19;;;;;;;4.20;3.03;;;15.60;99.90;;;;;;5093447;28;20035;-40
2023/03/17 11:32:03;;;;;;;3.92;2.40;;;15.70;99.90;;;;;;5088850;28;20032;-42
2023/03/17 11:34:51;;;;;;;10.00;3.17;;;16.00;99.90;;;;;;5094838;28;20024;-41
2023/03/17 11:37:37;;;;;;;3.22;2.85;;;16.30;99.90;;;;;;5094490;28;20111;-35
2023/03/17 11:40:44;;;;;;;3.88;2.83;;;16.60;99.90;;;;;;5113078;28;20138;-42
2023/03/17 11:43:20;;;;;;;7.13;2.88;;;16.80;99.90;;;;;;5096260;28;20097;-42
2023/03/17 11:46:08;;;;;;;8.57;3.00;;;16.90;99.90;;;;;;5097213;28;20083;-42
2023/03/17 11:48:52;;;;;;;;;;;17.00;99.90;;;;;;5105855;28;20036;-42
2023/03/17 11:51:44;;;;;;;4.88;2.72;;;17.10;99.90;;;;;;5109901;28;20359;-42
2023/03/17 11:54:15;;;;;;;4.68;2.80;;;17.20;99.90;;;;;;5090548;28;20510;-42
2023/03/17 11:56:50;;;;;;;6.28;3.15;;;17.30;99.90;;;;;;5107994;28;20027;-41
2023/03/17 11:59:29;;;;;;;6.18;3.15;;;17.20;99.90;;;;;;5113498;28;20020;-43
2023/03/17 12:02:14;;;;;;;9.02;3.53;;;17.10;99.90;;;;;;5097932;28;20139;-42
2023/03/17 12:04:54;;;;;;;5.53;2.78;;;17.20;99.90;;;;;;5093043;28;20089;-44
2023/03/17 12:08:00;;;;;;;6.07;3.30;;;17.30;99.90;;;;;;5093803;28;20055;-45
2023/03/17 12:10:38;;;;;;;4.38;2.90;;;17.50;99.90;;;;;;5074860;28;20484;-42
2023/03/17 12:13:11;;;;;;;;;;;17.60;99.90;;;;;;5092904;28;20503;-44
2023/03/17 12:15:54;;;;;;;6.03;3.20;;;17.40;99.90;;;;;;5098494;28;19911;-42
2023/03/17 12:18:26;;;;;;;2.90;2.65;;;17.50;99.90;;;;;;5113130;28;20024;-44
2023/03/17 12:21:16;;;;;;;4.25;3.08;;;17.30;99.90;;;;;;5111784;28;20050;-39
2023/03/17 12:23:53;;;;;;;6.10;3.40;;;17.30;99.90;;;;;;5101669;28;20023;-43
2023/03/17 12:26:46;;;;;;;6.10;3.60;;;17.30;99.90;;;;;;5111892;28;20023;-41
2023/03/17 12:29:17;;;;;;;7.55;3.75;;;17.40;99.90;;;;;;5092931;28;20039;-39
2023/03/17 12:31:49;;;;;;;6.60;3.33;;;17.30;99.90;;;;;;5092839;28;20036;-41
2023/03/17 12:34:51;;;;;;;8.52;3.80;;;17.30;99.90;;;;;;5095124;28;20085;-45
2023/03/17 12:37:18;;;;;;;5.63;3.13;;;17.30;99.90;;;;;;5092640;28;20063;-37
2023/03/17 12:39:54;;;;;;;10.20;3.00;;;17.50;99.90;;;;;;5109612;28;20039;-41
2023/03/17 12:42:29;;;;;;;6.05;2.80;;;17.70;99.90;;;;;;5100062;28;20282;-44
2023/03/17 12:45:03;;;;;;;6.07;3.72;;;17.80;99.90;;;;;;5103037;28;20024;-42
2023/03/17 12:47:41;;;;;;;9.02;2.70;;;17.80;99.90;;;;;;5107053;28;20032;-41
2023/03/17 12:50:16;;;;;;;14.52;3.63;;;17.80;99.90;;;;;;5092330;28;20036;-35
2023/03/17 12:53:18;;;;;;;6.68;3.05;;;17.90;99.90;;;;;;5093398;28;20468;-43
2023/03/17 12:55:48;;;;;;;8.23;3.90;;;17.80;99.90;;;;;;5094521;28;20039;-41
2023/03/17 12:58:25;;;;;;;5.05;3.25;;;17.60;99.90;;;;;;5098857;28;20043;-34
2023/03/17 13:01:24;;;;;;;6.05;3.67;;;17.40;99.90;;;;;;5110116;28;20031;-38
2023/03/17 13:04:05;;;;;;;5.13;3.35;;;17.40;99.90;;;;;;5108292;28;20097;-38